sensor_id;sensor_type;location;lat;lon;timestamp;temperature;humidity
45066;DHT22;30830;53.704;10.004;2023-04-06T00:01:01;0.10;99.90
45066;DHT22;30830;53.704;10.004;2023-04-06T00:03:27;0.00;99.90
45066;DHT22;30830;53.704;10.004;2023-04-06T00:05:52;0.00;99.90
45066;DHT22;30830;53.704;10.004;2023-04-06T00:08:18;0.00;99.90
45066;DHT22;30830;53.704;10.004;2023-04-06T00:10:44;-0.10;99.90
45066;DHT22;30830;53.704;10.004;2023-04-06T00:13:10;-0.10;99.90
45066;DHT22;30830;53.704;10.004;2023-04-06T00:15:35;-0.10;99.90
45066;DHT22;30830;53.704;10.004;2023-04-06T00:18:02;-0.10;99.90
45066;DHT22;30830;53.704;10.004;2023-04-06T00:20:28;-0.10;99.90
45066;DHT22;30830;53.704;10.004;2023-04-06T00:22:53;-0.10;99.90
45066;DHT22;30830;53.704;10.004;2023-04-06T00:25:19;-0.10;99.90
45066;DHT22;30830;53.704;10.004;2023-04-06T00:27:45;-0.20;99.90
45066;DHT22;30830;53.704;10.004;2023-04-06T00:30:11;-0.20;99.90
45066;DHT22;30830;53.704;10.004;2023-04-06T00:32:36;-0.20;99.90
45066;DHT22;30830;53.704;10.004;2023-04-06T00:35:05;-0.20;99.90
45066;DHT22;30830;53.704;10.004;2023-04-06T00:37:32;-0.20;99.90
45066;DHT22;30830;53.704;10.004;2023-04-06T00:39:57;-0.30;99.90
45066;DHT22;30830;53.704;10.004;2023-04-06T00:42:23;-0.30;99.90
45066;DHT22;30830;53.704;10.004;2023-04-06T00:44:53;-0.30;99.90
45066;DHT22;30830;53.704;10.004;2023-04-06T00:47:20;-0.30;99.90
45066;DHT22;30830;53.704;10.004;2023-04-06T00:49:46;-0.30;99.90
45066;DHT22;30830;53.704;10.004;2023-04-06T00:52:12;-0.30;99.90
45066;DHT22;30830;53.704;10.004;2023-04-06T00:54:38;-0.40;99.90
45066;DHT22;30830;53.704;10.004;2023-04-06T00:57:03;-0.40;99.90
45066;DHT22;30830;53.704;10.004;2023-04-06T00:59:29;-0.40;99.90
45066;DHT22;30830;53.704;10.004;2023-04-06T01:01:55;-0.50;99.90
45066;DHT22;30830;53.704;10.004;2023-04-06T01:04:21;-0.50;99.90
45066;DHT22;30830;53.704;10.004;2023-04-06T01:06:49;-0.50;99.90
45066;DHT22;30830;53.704;10.004;2023-04-06T01:09:15;-0.50;99.90
45066;DHT22;30830;53.704;10.004;2023-04-06T01:11:40;-0.50;99.90
45066;DHT22;30830;53.704;10.004;2023-04-06T01:14:06;-0.50;99.90
45066;DHT22;30830;53.704;10.004;2023-04-06T01:16:32;-0.60;99.90
45066;DHT22;30830;53.704;10.004;2023-04-06T01:18:58;-0.50;99.90
45066;DHT22;30830;53.704;10.004;2023-04-06T01:21:24;-0.60;99.90
45066;DHT22;30830;53.704;10.004;2023-04-06T01:23:50;-0.60;99.90
45066;DHT22;30830;53.704;10.004;2023-04-06T01:26:16;-0.60;99.90
45066;DHT22;30830;53.704;10.004;2023-04-06T01:28:41;-0.60;99.90
45066;DHT22;30830;53.704;10.004;2023-04-06T01:31:08;-0.60;99.90
45066;DHT22;30830;53.704;10.004;2023-04-06T01:33:34;-0.60;99.90
45066;DHT22;30830;53.704;10.004;2023-04-06T01:36:00;-0.60;99.90
45066;DHT22;30830;53.704;10.004;2023-04-06T01:38:26;-0.60;99.90
45066;DHT22;30830;53.704;10.004;2023-04-06T01:40:55;-0.70;99.90
45066;DHT22;30830;53.704;10.004;2023-04-06T01:43:20;-0.60;99.90
45066;DHT22;30830;53.704;10.004;2023-04-06T01:45:46;-0.70;99.90
45066;DHT22;30830;53.704;10.004;2023-04-06T01:48:12;-0.70;99.90
45066;DHT22;30830;53.704;10.004;2023-04-06T01:50:38;-0.60;99.90
45066;DHT22;30830;53.704;10.004;2023-04-06T01:53:03;-0.60;99.90
45066;DHT22;30830;53.704;10.004;2023-04-06T01:55:29;-0.60;99.90
45066;DHT22;30830;53.704;10.004;2023-04-06T01:57:54;-0.60;99.90
45066;DHT22;30830;53.704;10.004;2023-04-06T02:00:20;-0.60;99.90
45066;DHT22;30830;53.704;10.004;2023-04-06T02:02:46;-0.70;99.90
45066;DHT22;30830;53.704;10.004;2023-04-06T02:05:11;-0.70;99.90
45066;DHT22;30830;53.704;10.004;2023-04-06T02:07:37;-0.70;99.90
45066;DHT22;30830;53.704;10.004;2023-04-06T02:10:03;-0.70;99.90
45066;DHT22;30830;53.704;10.004;2023-04-06T02:12:29;-0.80;99.90
45066;DHT22;30830;53.704;10.004;2023-04-06T02:14:55;-0.80;99.90
45066;DHT22;30830;53.704;10.004;2023-04-06T02:17:20;-0.80;99.90
45066;DHT22;30830;53.704;10.004;2023-04-06T02:19:46;-0.80;99.90
45066;DHT22;30830;53.704;10.004;2023-04-06T02:22:12;-0.90;99.90
45066;DHT22;30830;53.704;10.004;2023-04-06T02:24:37;-0.90;99.90
45066;DHT22;30830;53.704;10.004;2023-04-06T02:27:03;-0.90;99.90
45066;DHT22;30830;53.704;10.004;2023-04-06T02:29:28;-0.90;99.90
45066;DHT22;30830;53.704;10.004;2023-04-06T02:31:54;-1.00;99.90
45066;DHT22;30830;53.704;10.004;2023-04-06T02:34:20;-1.00;99.90
45066;DHT22;30830;53.704;10.004;2023-04-06T02:36:46;-1.00;99.90
45066;DHT22;30830;53.704;10.004;2023-04-06T02:39:12;-1.00;99.90
45066;DHT22;30830;53.704;10.004;2023-04-06T02:41:39;-1.10;99.90
45066;DHT22;30830;53.704;10.004;2023-04-06T02:44:08;-1.10;99.90
45066;DHT22;30830;53.704;10.004;2023-04-06T02:46:34;-1.10;99.90
45066;DHT22;30830;53.704;10.004;2023-04-06T02:49:00;-1.10;99.90
45066;DHT22;30830;53.704;10.004;2023-04-06T02:51:26;-1.10;99.90
45066;DHT22;30830;53.704;10.004;2023-04-06T02:53:52;-1.20;99.90
45066;DHT22;30830;53.704;10.004;2023-04-06T02:56:18;-1.20;99.90
45066;DHT22;30830;53.704;10.004;2023-04-06T02:58:43;-1.20;99.90
45066;DHT22;30830;53.704;10.004;2023-04-06T03:01:09;-1.20;99.90
45066;DHT22;30830;53.704;10.004;2023-04-06T03:03:35;-1.20;99.90
45066;DHT22;30830;53.704;10.004;2023-04-06T03:06:01;-1.20;99.90
45066;DHT22;30830;53.704;10.004;2023-04-06T03:08:26;-1.20;99.90
45066;DHT22;30830;53.704;10.004;2023-04-06T03:10:52;-1.20;99.90
45066;DHT22;30830;53.704;10.004;2023-04-06T03:13:18;-1.20;99.90
45066;DHT22;30830;53.704;10.004;2023-04-06T03:15:43;-1.20;99.90
45066;DHT22;30830;53.704;10.004;2023-04-06T03:18:09;-1.20;99.90
45066;DHT22;30830;53.704;10.004;2023-04-06T03:20:34;-1.10;99.90
45066;DHT22;30830;53.704;10.004;2023-04-06T03:23:00;-1.20;99.90
45066;DHT22;30830;53.704;10.004;2023-04-06T03:25:26;-1.10;99.90
45066;DHT22;30830;53.704;10.004;2023-04-06T03:27:51;-1.10;99.90
45066;DHT22;30830;53.704;10.004;2023-04-06T03:30:17;-1.10;99.90
45066;DHT22;30830;53.704;10.004;2023-04-06T03:32:44;-1.10;99.90
45066;DHT22;30830;53.704;10.004;2023-04-06T03:35:09;-1.10;99.90
45066;DHT22;30830;53.704;10.004;2023-04-06T03:37:35;-1.10;99.90
45066;DHT22;30830;53.704;10.004;2023-04-06T03:40:01;-1.10;99.90
45066;DHT22;30830;53.704;10.004;2023-04-06T03:42:27;-1.00;99.90
45066;DHT22;30830;53.704;10.004;2023-04-06T03:44:53;-1.00;99.90
45066;DHT22;30830;53.704;10.004;2023-04-06T03:47:19;-1.00;99.90
45066;DHT22;30830;53.704;10.004;2023-04-06T03:49:45;-1.00;99.90
45066;DHT22;30830;53.704;10.004;2023-04-06T03:52:10;-1.00;99.90
45066;DHT22;30830;53.704;10.004;2023-04-06T03:54:36;-1.00;99.90
45066;DHT22;30830;53.704;10.004;2023-04-06T03:57:02;-1.00;99.90
45066;DHT22;30830;53.704;10.004;2023-04-06T03:59:28;-1.00;99.90
45066;DHT22;30830;53.704;10.004;2023-04-06T04:01:53;-1.00;99.90
45066;DHT22;30830;53.704;10.004;2023-04-06T04:04:19;-1.10;99.90
45066;DHT22;30830;53.704;10.004;2023-04-06T04:06:45;-1.10;99.90
45066;DHT22;30830;53.704;10.004;2023-04-06T04:09:10;-1.10;99.90
45066;DHT22;30830;53.704;10.004;2023-04-06T04:11:36;-1.10;99.90
45066;DHT22;30830;53.704;10.004;2023-04-06T04:14:01;-1.10;99.90
45066;DHT22;30830;53.704;10.004;2023-04-06T04:16:27;-1.10;99.90
45066;DHT22;30830;53.704;10.004;2023-04-06T04:18:53;-1.10;99.90
45066;DHT22;30830;53.704;10.004;2023-04-06T04:21:18;-1.10;99.90
45066;DHT22;30830;53.704;10.004;2023-04-06T04:23:44;-1.10;99.90
45066;DHT22;30830;53.704;10.004;2023-04-06T04:26:10;-1.10;99.90
45066;DHT22;30830;53.704;10.004;2023-04-06T04:28:35;-1.20;99.90
45066;DHT22;30830;53.704;10.004;2023-04-06T04:31:01;-1.20;99.90
45066;DHT22;30830;53.704;10.004;2023-04-06T04:33:27;-1.20;99.90
45066;DHT22;30830;53.704;10.004;2023-04-06T04:35:52;-1.20;99.90
45066;DHT22;30830;53.704;10.004;2023-04-06T04:38:18;-1.20;99.90
45066;DHT22;30830;53.704;10.004;2023-04-06T04:40:43;-1.20;99.90
45066;DHT22;30830;53.704;10.004;2023-04-06T04:43:09;-1.20;99.90
45066;DHT22;30830;53.704;10.004;2023-04-06T04:45:35;-1.20;99.90
45066;DHT22;30830;53.704;10.004;2023-04-06T04:48:01;-1.10;99.90
45066;DHT22;30830;53.704;10.004;2023-04-06T04:50:26;-1.10;99.90
45066;DHT22;30830;53.704;10.004;2023-04-06T04:52:52;-1.10;99.90
45066;DHT22;30830;53.704;10.004;2023-04-06T04:55:17;-1.10;99.90
45066;DHT22;30830;53.704;10.004;2023-04-06T04:57:43;-1.20;99.90
45066;DHT22;30830;53.704;10.004;2023-04-06T05:00:09;-1.10;99.90
45066;DHT22;30830;53.704;10.004;2023-04-06T05:02:35;-1.10;99.90
45066;DHT22;30830;53.704;10.004;2023-04-06T05:05:00;-1.10;99.90
45066;DHT22;30830;53.704;10.004;2023-04-06T05:07:26;-1.10;99.90
45066;DHT22;30830;53.704;10.004;2023-04-06T05:09:52;-1.10;99.90
45066;DHT22;30830;53.704;10.004;2023-04-06T05:12:18;-1.10;99.90
45066;DHT22;30830;53.704;10.004;2023-04-06T05:14:44;-1.10;99.90
45066;DHT22;30830;53.704;10.004;2023-04-06T05:17:10;-1.10;99.90
45066;DHT22;30830;53.704;10.004;2023-04-06T05:19:36;-1.10;99.90
45066;DHT22;30830;53.704;10.004;2023-04-06T05:22:01;-1.10;99.90
45066;DHT22;30830;53.704;10.004;2023-04-06T05:24:27;-1.10;99.90
45066;DHT22;30830;53.704;10.004;2023-04-06T05:26:53;-1.00;99.90
45066;DHT22;30830;53.704;10.004;2023-04-06T05:29:19;-1.00;99.90
45066;DHT22;30830;53.704;10.004;2023-04-06T05:31:45;-1.00;99.90
45066;DHT22;30830;53.704;10.004;2023-04-06T05:34:11;-1.00;99.90
45066;DHT22;30830;53.704;10.004;2023-04-06T05:36:38;-1.00;99.90
45066;DHT22;30830;53.704;10.004;2023-04-06T05:39:03;-1.00;99.90
45066;DHT22;30830;53.704;10.004;2023-04-06T05:41:29;-1.00;99.90
45066;DHT22;30830;53.704;10.004;2023-04-06T05:43:55;-0.90;99.90
45066;DHT22;30830;53.704;10.004;2023-04-06T05:46:21;-0.90;99.90
45066;DHT22;30830;53.704;10.004;2023-04-06T05:48:46;-0.90;99.90
45066;DHT22;30830;53.704;10.004;2023-04-06T05:51:12;-0.90;99.90
45066;DHT22;30830;53.704;10.004;2023-04-06T05:53:38;-0.80;99.90
45066;DHT22;30830;53.704;10.004;2023-04-06T05:56:04;-0.80;99.90
45066;DHT22;30830;53.704;10.004;2023-04-06T05:58:30;-0.70;99.90
45066;DHT22;30830;53.704;10.004;2023-04-06T06:01:02;-0.70;99.90
45066;DHT22;30830;53.704;10.004;2023-04-06T06:03:28;-0.70;99.90
45066;DHT22;30830;53.704;10.004;2023-04-06T06:06:00;-0.60;99.90
45066;DHT22;30830;53.704;10.004;2023-04-06T06:08:26;-0.50;99.90
45066;DHT22;30830;53.704;10.004;2023-04-06T06:10:51;-0.50;99.90
45066;DHT22;30830;53.704;10.004;2023-04-06T06:13:17;-0.40;99.90
45066;DHT22;30830;53.704;10.004;2023-04-06T06:15:43;-0.40;99.90
45066;DHT22;30830;53.704;10.004;2023-04-06T06:18:09;-0.30;99.90
45066;DHT22;30830;53.704;10.004;2023-04-06T06:20:34;-0.20;99.90
45066;DHT22;30830;53.704;10.004;2023-04-06T06:23:00;-0.20;99.90
45066;DHT22;30830;53.704;10.004;2023-04-06T06:25:25;-0.10;99.90
45066;DHT22;30830;53.704;10.004;2023-04-06T06:27:51;0.00;99.90
45066;DHT22;30830;53.704;10.004;2023-04-06T06:30:17;0.10;99.90
45066;DHT22;30830;53.704;10.004;2023-04-06T06:32:42;0.10;99.90
45066;DHT22;30830;53.704;10.004;2023-04-06T06:35:08;0.20;99.90
45066;DHT22;30830;53.704;10.004;2023-04-06T06:37:34;0.30;99.90
45066;DHT22;30830;53.704;10.004;2023-04-06T06:40:00;0.40;99.90
45066;DHT22;30830;53.704;10.004;2023-04-06T06:42:25;0.60;99.90
45066;DHT22;30830;53.704;10.004;2023-04-06T06:44:51;0.60;99.90
45066;DHT22;30830;53.704;10.004;2023-04-06T06:47:17;0.70;99.90
45066;DHT22;30830;53.704;10.004;2023-04-06T06:49:43;0.90;99.90
45066;DHT22;30830;53.704;10.004;2023-04-06T06:52:08;0.90;99.90
45066;DHT22;30830;53.704;10.004;2023-04-06T06:54:34;1.00;99.90
45066;DHT22;30830;53.704;10.004;2023-04-06T06:57:00;1.20;99.90
45066;DHT22;30830;53.704;10.004;2023-04-06T06:59:26;1.20;99.90
45066;DHT22;30830;53.704;10.004;2023-04-06T07:01:51;1.40;99.90
45066;DHT22;30830;53.704;10.004;2023-04-06T07:04:17;1.50;99.90
45066;DHT22;30830;53.704;10.004;2023-04-06T07:06:43;1.60;99.90
45066;DHT22;30830;53.704;10.004;2023-04-06T07:09:09;1.80;99.90
45066;DHT22;30830;53.704;10.004;2023-04-06T07:11:34;2.00;99.90
45066;DHT22;30830;53.704;10.004;2023-04-06T07:14:00;2.10;99.90
45066;DHT22;30830;53.704;10.004;2023-04-06T07:16:26;2.40;99.90
45066;DHT22;30830;53.704;10.004;2023-04-06T07:18:51;2.60;99.90
45066;DHT22;30830;53.704;10.004;2023-04-06T07:21:17;2.80;99.90
45066;DHT22;30830;53.704;10.004;2023-04-06T07:23:43;3.00;99.90
45066;DHT22;30830;53.704;10.004;2023-04-06T07:26:09;3.30;99.90
45066;DHT22;30830;53.704;10.004;2023-04-06T07:28:34;3.60;99.90
45066;DHT22;30830;53.704;10.004;2023-04-06T07:31:00;3.90;99.90
45066;DHT22;30830;53.704;10.004;2023-04-06T07:33:25;4.20;99.90
45066;DHT22;30830;53.704;10.004;2023-04-06T07:35:55;4.40;99.90
45066;DHT22;30830;53.704;10.004;2023-04-06T07:38:22;4.70;99.90
45066;DHT22;30830;53.704;10.004;2023-04-06T07:40:47;5.00;99.90
45066;DHT22;30830;53.704;10.004;2023-04-06T07:43:13;5.30;99.90
45066;DHT22;30830;53.704;10.004;2023-04-06T07:45:38;5.60;99.90
45066;DHT22;30830;53.704;10.004;2023-04-06T07:48:04;5.90;99.90
45066;DHT22;30830;53.704;10.004;2023-04-06T07:50:30;6.10;99.90
45066;DHT22;30830;53.704;10.004;2023-04-06T07:52:55;6.40;99.90
45066;DHT22;30830;53.704;10.004;2023-04-06T07:55:21;6.70;99.90
45066;DHT22;30830;53.704;10.004;2023-04-06T07:57:46;6.90;99.90
45066;DHT22;30830;53.704;10.004;2023-04-06T08:00:13;7.10;99.90
45066;DHT22;30830;53.704;10.004;2023-04-06T08:02:39;7.30;99.90
45066;DHT22;30830;53.704;10.004;2023-04-06T08:05:05;7.50;99.90
45066;DHT22;30830;53.704;10.004;2023-04-06T08:07:31;7.70;99.90
45066;DHT22;30830;53.704;10.004;2023-04-06T08:09:57;8.00;99.90
45066;DHT22;30830;53.704;10.004;2023-04-06T08:12:22;8.20;99.20
45066;DHT22;30830;53.704;10.004;2023-04-06T08:14:48;8.40;99.90
45066;DHT22;30830;53.704;10.004;2023-04-06T08:17:13;8.50;99.60
45066;DHT22;30830;53.704;10.004;2023-04-06T08:19:41;8.70;97.10
45066;DHT22;30830;53.704;10.004;2023-04-06T08:22:07;8.90;97.00
45066;DHT22;30830;53.704;10.004;2023-04-06T08:24:32;9.00;95.40
45066;DHT22;30830;53.704;10.004;2023-04-06T08:26:59;9.10;94.70
45066;DHT22;30830;53.704;10.004;2023-04-06T08:29:24;9.20;95.30
45066;DHT22;30830;53.704;10.004;2023-04-06T08:31:50;9.40;94.00
45066;DHT22;30830;53.704;10.004;2023-04-06T08:34:15;9.50;93.60
45066;DHT22;30830;53.704;10.004;2023-04-06T08:36:41;9.70;94.20
45066;DHT22;30830;53.704;10.004;2023-04-06T08:39:07;9.80;94.00
45066;DHT22;30830;53.704;10.004;2023-04-06T08:41:33;10.00;94.30
45066;DHT22;30830;53.704;10.004;2023-04-06T08:44:01;10.20;92.70
45066;DHT22;30830;53.704;10.004;2023-04-06T08:46:28;10.30;92.00
45066;DHT22;30830;53.704;10.004;2023-04-06T08:48:59;10.40;92.00
45066;DHT22;30830;53.704;10.004;2023-04-06T08:51:25;10.40;87.50
45066;DHT22;30830;53.704;10.004;2023-04-06T08:53:57;10.40;89.20
45066;DHT22;30830;53.704;10.004;2023-04-06T08:56:26;10.40;85.60
45066;DHT22;30830;53.704;10.004;2023-04-06T08:58:53;10.50;90.00
45066;DHT22;30830;53.704;10.004;2023-04-06T09:01:25;10.70;91.10
45066;DHT22;30830;53.704;10.004;2023-04-06T09:03:51;10.80;86.50
45066;DHT22;30830;53.704;10.004;2023-04-06T09:06:21;10.80;87.40
45066;DHT22;30830;53.704;10.004;2023-04-06T09:08:47;10.90;87.70
45066;DHT22;30830;53.704;10.004;2023-04-06T09:11:12;11.00;85.90
45066;DHT22;30830;53.704;10.004;2023-04-06T09:13:52;11.20;85.00
45066;DHT22;30830;53.704;10.004;2023-04-06T09:16:19;11.20;84.10
45066;DHT22;30830;53.704;10.004;2023-04-06T09:18:46;11.20;86.60
45066;DHT22;30830;53.704;10.004;2023-04-06T09:21:11;11.40;86.50
45066;DHT22;30830;53.704;10.004;2023-04-06T09:23:37;11.50;83.10
45066;DHT22;30830;53.704;10.004;2023-04-06T09:26:14;11.50;81.60
45066;DHT22;30830;53.704;10.004;2023-04-06T09:28:45;11.60;79.80
45066;DHT22;30830;53.704;10.004;2023-04-06T09:31:12;11.60;77.50
45066;DHT22;30830;53.704;10.004;2023-04-06T09:33:43;11.50;76.40
45066;DHT22;30830;53.704;10.004;2023-04-06T09:36:09;11.40;78.10
45066;DHT22;30830;53.704;10.004;2023-04-06T09:38:39;11.50;79.50
45066;DHT22;30830;53.704;10.004;2023-04-06T09:41:05;11.60;79.40
45066;DHT22;30830;53.704;10.004;2023-04-06T09:43:31;11.60;77.90
45066;DHT22;30830;53.704;10.004;2023-04-06T09:45:56;11.80;79.20
45066;DHT22;30830;53.704;10.004;2023-04-06T09:48:24;11.90;78.80
45066;DHT22;30830;53.704;10.004;2023-04-06T09:50:57;11.90;76.00
45066;DHT22;30830;53.704;10.004;2023-04-06T09:53:26;12.00;78.70
45066;DHT22;30830;53.704;10.004;2023-04-06T09:55:57;11.90;73.70
45066;DHT22;30830;53.704;10.004;2023-04-06T09:58:25;12.00;74.20
45066;DHT22;30830;53.704;10.004;2023-04-06T10:01:03;12.00;73.70
45066;DHT22;30830;53.704;10.004;2023-04-06T10:06:11;11.90;74.60
45066;DHT22;30830;53.704;10.004;2023-04-06T10:08:38;11.90;80.00
45066;DHT22;30830;53.704;10.004;2023-04-06T10:11:06;12.00;75.70
45066;DHT22;30830;53.704;10.004;2023-04-06T10:13:32;12.10;73.40
45066;DHT22;30830;53.704;10.004;2023-04-06T10:16:00;12.00;74.10
45066;DHT22;30830;53.704;10.004;2023-04-06T10:18:29;11.90;74.10
45066;DHT22;30830;53.704;10.004;2023-04-06T10:21:00;11.90;74.00
45066;DHT22;30830;53.704;10.004;2023-04-06T10:23:32;11.70;72.10
45066;DHT22;30830;53.704;10.004;2023-04-06T10:26:01;11.70;74.90
45066;DHT22;30830;53.704;10.004;2023-04-06T10:28:35;11.80;77.30
45066;DHT22;30830;53.704;10.004;2023-04-06T10:31:27;11.90;76.40
45066;DHT22;30830;53.704;10.004;2023-04-06T10:33:57;12.00;76.60
45066;DHT22;30830;53.704;10.004;2023-04-06T10:36:28;11.90;76.20
45066;DHT22;30830;53.704;10.004;2023-04-06T10:38:56;12.00;77.70
45066;DHT22;30830;53.704;10.004;2023-04-06T10:41:23;12.00;77.40
45066;DHT22;30830;53.704;10.004;2023-04-06T10:43:55;12.00;75.30
45066;DHT22;30830;53.704;10.004;2023-04-06T10:46:30;12.00;76.00
45066;DHT22;30830;53.704;10.004;2023-04-06T10:48:56;12.10;74.90
45066;DHT22;30830;53.704;10.004;2023-04-06T10:51:28;12.10;74.50
45066;DHT22;30830;53.704;10.004;2023-04-06T10:53:55;12.10;70.90
45066;DHT22;30830;53.704;10.004;2023-04-06T10:56:24;12.00;70.10
45066;DHT22;30830;53.704;10.004;2023-04-06T10:58:54;12.00;71.20
45066;DHT22;30830;53.704;10.004;2023-04-06T11:01:22;12.00;70.70
45066;DHT22;30830;53.704;10.004;2023-04-06T11:03:54;12.10;71.20
45066;DHT22;30830;53.704;10.004;2023-04-06T11:06:26;12.20;73.00
45066;DHT22;30830;53.704;10.004;2023-04-06T11:08:53;12.20;73.80
45066;DHT22;30830;53.704;10.004;2023-04-06T11:11:20;12.30;72.40
45066;DHT22;30830;53.704;10.004;2023-04-06T11:13:50;12.30;72.70
45066;DHT22;30830;53.704;10.004;2023-04-06T11:16:21;12.40;73.70
45066;DHT22;30830;53.704;10.004;2023-04-06T11:18:57;12.40;73.30
45066;DHT22;30830;53.704;10.004;2023-04-06T11:21:33;12.50;73.30
45066;DHT22;30830;53.704;10.004;2023-04-06T11:24:10;12.60;72.70
45066;DHT22;30830;53.704;10.004;2023-04-06T11:27:00;12.60;72.10
45066;DHT22;30830;53.704;10.004;2023-04-06T11:29:30;12.60;72.00
45066;DHT22;30830;53.704;10.004;2023-04-06T11:32:01;12.60;69.80
45066;DHT22;30830;53.704;10.004;2023-04-06T11:34:29;12.60;71.80
45066;DHT22;30830;53.704;10.004;2023-04-06T11:37:00;12.50;70.00
45066;DHT22;30830;53.704;10.004;2023-04-06T11:39:27;12.60;70.30
45066;DHT22;30830;53.704;10.004;2023-04-06T11:41:57;12.40;70.80
45066;DHT22;30830;53.704;10.004;2023-04-06T11:44:33;12.40;72.80
45066;DHT22;30830;53.704;10.004;2023-04-06T11:47:01;12.50;72.10
45066;DHT22;30830;53.704;10.004;2023-04-06T11:49:30;12.70;71.60
45066;DHT22;30830;53.704;10.004;2023-04-06T11:51:56;12.70;71.00
45066;DHT22;30830;53.704;10.004;2023-04-06T11:54:36;12.60;70.70
45066;DHT22;30830;53.704;10.004;2023-04-06T11:57:07;12.70;70.40
45066;DHT22;30830;53.704;10.004;2023-04-06T11:59:33;12.70;73.40
45066;DHT22;30830;53.704;10.004;2023-04-06T12:01:59;12.80;74.60
45066;DHT22;30830;53.704;10.004;2023-04-06T12:04:25;12.80;73.20
45066;DHT22;30830;53.704;10.004;2023-04-06T12:06:51;13.00;73.60
45066;DHT22;30830;53.704;10.004;2023-04-06T12:09:17;13.00;68.70
45066;DHT22;30830;53.704;10.004;2023-04-06T12:11:43;12.90;68.10
45066;DHT22;30830;53.704;10.004;2023-04-06T12:14:09;12.70;71.30
45066;DHT22;30830;53.704;10.004;2023-04-06T12:16:35;12.80;70.80
45066;DHT22;30830;53.704;10.004;2023-04-06T12:19:01;12.90;71.00
45066;DHT22;30830;53.704;10.004;2023-04-06T12:21:27;13.00;70.90
45066;DHT22;30830;53.704;10.004;2023-04-06T12:23:54;13.00;70.70
45066;DHT22;30830;53.704;10.004;2023-04-06T12:26:20;13.10;68.00
45066;DHT22;30830;53.704;10.004;2023-04-06T12:28:46;13.10;70.00
45066;DHT22;30830;53.704;10.004;2023-04-06T12:31:19;13.20;70.10
45066;DHT22;30830;53.704;10.004;2023-04-06T12:33:49;13.20;69.50
45066;DHT22;30830;53.704;10.004;2023-04-06T12:36:16;13.30;68.00
45066;DHT22;30830;53.704;10.004;2023-04-06T12:38:44;13.20;69.00
45066;DHT22;30830;53.704;10.004;2023-04-06T12:41:11;13.20;67.80
45066;DHT22;30830;53.704;10.004;2023-04-06T12:43:38;13.10;69.70
45066;DHT22;30830;53.704;10.004;2023-04-06T12:46:04;13.20;69.70
45066;DHT22;30830;53.704;10.004;2023-04-06T12:48:29;13.10;67.40
45066;DHT22;30830;53.704;10.004;2023-04-06T12:51:00;13.20;70.80
45066;DHT22;30830;53.704;10.004;2023-04-06T12:53:26;13.30;67.30
45066;DHT22;30830;53.704;10.004;2023-04-06T12:55:54;13.30;68.20
45066;DHT22;30830;53.704;10.004;2023-04-06T12:58:20;13.40;69.00
45066;DHT22;30830;53.704;10.004;2023-04-06T13:00:47;13.40;68.10
45066;DHT22;30830;53.704;10.004;2023-04-06T13:03:12;13.50;69.70
45066;DHT22;30830;53.704;10.004;2023-04-06T13:05:45;13.50;69.80
45066;DHT22;30830;53.704;10.004;2023-04-06T13:08:11;13.50;66.60
45066;DHT22;30830;53.704;10.004;2023-04-06T13:10:37;13.40;68.00
45066;DHT22;30830;53.704;10.004;2023-04-06T13:13:03;13.40;68.00
45066;DHT22;30830;53.704;10.004;2023-04-06T13:15:31;13.40;70.30
45066;DHT22;30830;53.704;10.004;2023-04-06T13:17:57;13.40;68.80
45066;DHT22;30830;53.704;10.004;2023-04-06T13:20:23;13.50;69.30
45066;DHT22;30830;53.704;10.004;2023-04-06T13:22:50;13.60;67.70
45066;DHT22;30830;53.704;10.004;2023-04-06T13:25:15;13.60;68.60
45066;DHT22;30830;53.704;10.004;2023-04-06T13:27:41;13.60;70.40
45066;DHT22;30830;53.704;10.004;2023-04-06T13:30:09;13.60;69.20
45066;DHT22;30830;53.704;10.004;2023-04-06T13:32:35;13.70;69.30
45066;DHT22;30830;53.704;10.004;2023-04-06T13:35:01;13.70;70.40
45066;DHT22;30830;53.704;10.004;2023-04-06T13:37:29;13.80;69.70
45066;DHT22;30830;53.704;10.004;2023-04-06T13:39:54;13.80;68.90
45066;DHT22;30830;53.704;10.004;2023-04-06T13:42:20;13.80;67.80
45066;DHT22;30830;53.704;10.004;2023-04-06T13:44:46;13.80;67.20
45066;DHT22;30830;53.704;10.004;2023-04-06T13:47:12;13.80;68.00
45066;DHT22;30830;53.704;10.004;2023-04-06T13:49:38;13.80;68.70
45066;DHT22;30830;53.704;10.004;2023-04-06T13:52:04;13.80;68.10
45066;DHT22;30830;53.704;10.004;2023-04-06T13:54:30;13.80;67.90
45066;DHT22;30830;53.704;10.004;2023-04-06T13:56:55;13.80;67.30
45066;DHT22;30830;53.704;10.004;2023-04-06T13:59:22;13.70;69.20
45066;DHT22;30830;53.704;10.004;2023-04-06T14:01:48;13.80;66.10
45066;DHT22;30830;53.704;10.004;2023-04-06T14:04:13;13.80;67.50
45066;DHT22;30830;53.704;10.004;2023-04-06T14:06:39;13.80;66.40
45066;DHT22;30830;53.704;10.004;2023-04-06T14:09:05;13.70;67.20
45066;DHT22;30830;53.704;10.004;2023-04-06T14:11:31;13.80;67.80
45066;DHT22;30830;53.704;10.004;2023-04-06T14:13:57;13.80;67.60
45066;DHT22;30830;53.704;10.004;2023-04-06T14:16:23;13.80;67.40
45066;DHT22;30830;53.704;10.004;2023-04-06T14:18:49;13.80;66.90
45066;DHT22;30830;53.704;10.004;2023-04-06T14:21:15;13.80;68.70
45066;DHT22;30830;53.704;10.004;2023-04-06T14:23:40;13.90;69.30
45066;DHT22;30830;53.704;10.004;2023-04-06T14:26:07;13.90;69.20
45066;DHT22;30830;53.704;10.004;2023-04-06T14:28:34;14.00;67.90
45066;DHT22;30830;53.704;10.004;2023-04-06T14:31:01;14.00;66.50
45066;DHT22;30830;53.704;10.004;2023-04-06T14:33:31;14.00;67.80
45066;DHT22;30830;53.704;10.004;2023-04-06T14:35:57;13.90;65.90
45066;DHT22;30830;53.704;10.004;2023-04-06T14:38:22;14.00;65.70
45066;DHT22;30830;53.704;10.004;2023-04-06T14:40:48;13.90;66.10
45066;DHT22;30830;53.704;10.004;2023-04-06T14:43:13;13.80;67.50
45066;DHT22;30830;53.704;10.004;2023-04-06T14:45:40;13.80;66.30
45066;DHT22;30830;53.704;10.004;2023-04-06T14:48:06;13.70;65.50
45066;DHT22;30830;53.704;10.004;2023-04-06T14:50:32;13.70;66.80
45066;DHT22;30830;53.704;10.004;2023-04-06T14:52:58;13.60;67.10
45066;DHT22;30830;53.704;10.004;2023-04-06T14:55:25;13.60;69.60
45066;DHT22;30830;53.704;10.004;2023-04-06T14:57:50;13.60;66.30
45066;DHT22;30830;53.704;10.004;2023-04-06T15:00:26;13.50;67.20
45066;DHT22;30830;53.704;10.004;2023-04-06T15:02:51;13.50;66.70
45066;DHT22;30830;53.704;10.004;2023-04-06T15:05:17;13.50;65.10
45066;DHT22;30830;53.704;10.004;2023-04-06T15:07:42;13.40;67.10
45066;DHT22;30830;53.704;10.004;2023-04-06T15:10:11;13.30;66.10
45066;DHT22;30830;53.704;10.004;2023-04-06T15:12:37;13.20;67.80
45066;DHT22;30830;53.704;10.004;2023-04-06T15:15:03;13.10;68.20
45066;DHT22;30830;53.704;10.004;2023-04-06T15:17:30;13.10;67.10